Time;durP1;ratioP1;P1;durP2;ratioP2;P2;SDS_P1;SDS_P2;PMS_P1;PMS_P2;Temp;Humidity;BMP_temperature;BMP_pressure;BME280_temperature;BME280_humidity;BME280_pressure;Samples;Min_cycle;Max_cycle;Signal;HPM_P1;HPM_P2
2023/06/27 00:01:43;;;;;;;11.88;7.15;;;;;;;19.49;100.00;99815.59;5105789;28;20042;-18
2023/06/27 00:04:10;;;;;;;12.23;7.13;;;;;;;19.12;100.00;99819.66;5105739;28;20024;-18
2023/06/27 00:06:41;;;;;;;9.75;6.50;;;;;;;18.81;100.00;99814.47;5105546;28;20038;-18
2023/06/27 00:09:12;;;;;;;14.30;7.63;;;;;;;18.98;100.00;99818.69;5092723;28;20082;-18
2023/06/27 00:11:39;;;;;;;13.05;8.05;;;;;;;18.84;100.00;99802.31;5085185;28;20024;-18
2023/06/27 00:14:05;;;;;;;16.85;8.98;;;;;;;19.03;100.00;99818.66;5085435;28;20039;-18
2023/06/27 00:16:35;;;;;;;15.88;9.38;;;;;;;19.30;100.00;99822.78;5085121;28;20073;-18
2023/06/27 00:19:04;;;;;;;17.67;8.93;;;;;;;19.27;100.00;99814.16;5085663;28;20074;-18
2023/06/27 00:21:36;;;;;;;17.80;10.95;;;;;;;19.25;100.00;99813.63;5085261;28;20035;-19
2023/06/27 00:24:03;;;;;;;29.08;14.52;;;;;;;19.24;100.00;99812.00;5085194;28;20016;-18
2023/06/27 00:26:29;;;;;;;37.65;18.00;;;;;;;19.24;100.00;99809.31;5085208;28;20044;-19
2023/06/27 00:28:55;;;;;;;39.17;19.92;;;;;;;18.98;100.00;99810.59;5085302;28;20115;-18
2023/06/27 00:31:21;;;;;;;40.15;20.60;;;;;;;18.73;100.00;99808.81;5085418;28;20032;-19
2023/06/27 00:33:47;;;;;;;41.28;19.25;;;;;;;18.43;100.00;99802.53;5085213;28;20487;-18
2023/06/27 00:36:14;;;;;;;37.92;18.83;;;;;;;18.68;100.00;99815.06;5085629;28;20024;-18
2023/06/27 00:38:39;;;;;;;32.72;17.48;;;;;;;18.68;100.00;99799.66;5084869;28;20028;-18
2023/06/27 00:41:05;;;;;;;29.60;15.05;;;;;;;18.74;100.00;99813.97;5085051;28;20032;-18
2023/06/27 00:43:30;;;;;;;25.10;13.55;;;;;;;18.80;100.00;99804.75;5085220;28;20123;-17
2023/06/27 00:45:57;;;;;;;69.85;28.23;;;;;;;18.80;100.00;99818.28;5085102;28;20134;-19
2023/06/27 00:48:23;;;;;;;82.63;36.45;;;;;;;18.89;100.00;99810.38;5085028;28;20036;-19
2023/06/27 00:50:51;;;;;;;66.20;29.77;;;;;;;18.97;100.00;99809.78;5085357;28;20020;-22
2023/06/27 00:53:17;;;;;;;43.97;21.73;;;;;;;18.99;100.00;99809.50;5085148;28;20036;-17
2023/06/27 00:55:42;;;;;;;37.55;19.50;;;;;;;19.24;100.00;99822.03;5084876;28;20455;-18
2023/06/27 00:58:11;;;;;;;36.55;17.02;;;;;;;19.45;100.00;99822.66;5086335;28;20028;-18
2023/06/27 01:00:37;;;;;;;36.08;18.60;;;;;;;19.25;100.00;99819.03;5087192;28;20020;-20
2023/06/27 01:03:03;;;;;;;33.42;14.30;;;;;;;19.35;100.00;99817.31;5088862;28;20546;-19
2023/06/27 01:05:29;;;;;;;25.10;13.75;;;;;;;19.15;100.00;99813.72;5088397;28;20141;-19
2023/06/27 01:08:14;;;;;;;18.83;10.63;;;;;;;19.19;100.00;99798.53;5088596;28;20163;-18
2023/06/27 01:10:48;;;;;;;19.08;9.85;;;;;;;19.10;100.00;99807.53;5088125;28;20643;-18
2023/06/27 01:13:22;;;;;;;18.17;10.38;;;;;;;19.18;100.00;99801.53;5088336;28;20036;-18
2023/06/27 01:15:48;;;;;;;20.65;11.75;;;;;;;18.69;100.00;99811.28;5088344;28;20114;-18
2023/06/27 01:18:15;;;;;;;18.00;10.95;;;;;;;19.00;100.00;99800.31;5088283;28;20038;-18
2023/06/27 01:20:43;;;;;;;19.52;12.00;;;;;;;19.25;100.00;99807.44;5088277;28;20031;-19
2023/06/27 01:23:09;;;;;;;21.80;11.43;;;;;;;19.10;100.00;99811.03;5088246;28;20096;-21
2023/06/27 01:25:37;;;;;;;26.33;13.10;;;;;;;18.70;100.00;99807.50;5088234;28;20473;-18
2023/06/27 01:28:03;;;;;;;19.73;11.23;;;;;;;18.30;100.00;99809.31;5088042;28;20085;-19
2023/06/27 01:30:33;;;;;;;22.17;12.38;;;;;;;18.53;100.00;99807.88;5087729;28;20028;-17
2023/06/27 01:33:05;;;;;;;17.85;9.48;;;;;;;18.63;100.00;99807.81;5088062;28;20109;-18
2023/06/27 01:35:38;;;;;;;13.10;7.40;;;;;;;18.65;100.00;99815.63;5087857;28;20439;-18
2023/06/27 01:38:11;;;;;;;13.95;7.25;;;;;;;18.77;100.00;99807.97;5088180;28;20031;-19
2023/06/27 01:40:39;;;;;;;11.82;6.90;;;;;;;18.85;100.00;99818.22;5087626;28;20039;-19
2023/06/27 01:43:09;;;;;;;13.73;7.05;;;;;;;18.69;100.00;99811.28;5087919;28;20686;-18
2023/06/27 01:45:36;;;;;;;10.15;6.53;;;;;;;18.58;100.00;99815.94;5087602;28;20123;-20
2023/06/27 01:48:01;;;;;;;11.80;7.03;;;;;;;18.23;100.00;99819.59;5087849;28;20051;-18
2023/06/27 01:50:28;;;;;;;13.40;6.82;;;;;;;18.23;100.00;99815.00;5087761;28;20051;-18
2023/06/27 01:52:53;;;;;;;12.60;6.70;;;;;;;18.31;100.00;99813.63;5087671;28;20031;-24
2023/06/27 01:55:19;;;;;;;25.60;12.60;;;;;;;18.41;100.00;99810.09;5087794;28;20028;-18
2023/06/27 01:57:44;;;;;;;31.13;15.23;;;;;;;18.51;100.00;99809.22;5087452;28;20028;-18
2023/06/27 02:00:11;;;;;;;40.90;19.23;;;;;;;18.57;100.00;99805.41;5087527;28;20036;-18
2023/06/27 02:02:37;;;;;;;36.15;18.17;;;;;;;18.68;100.00;99813.16;5087474;28;20161;-19
2023/06/27 02:05:02;;;;;;;31.38;16.08;;;;;;;18.20;100.00;99809.34;5087262;28;20024;-18
2023/06/27 02:07:27;;;;;;;27.88;13.27;;;;;;;17.81;100.00;99815.34;5087413;28;20095;-19
2023/06/27 02:09:53;;;;;;;34.42;14.85;;;;;;;17.29;100.00;99800.34;5086833;28;20034;-23
2023/06/27 02:12:18;;;;;;;29.30;13.85;;;;;;;17.39;100.00;99794.94;5087315;28;20571;-18
2023/06/27 02:14:44;;;;;;;31.17;15.00;;;;;;;17.83;100.00;99810.53;5086732;28;20028;-19
2023/06/27 02:17:10;;;;;;;34.13;13.90;;;;;;;18.04;100.00;99806.72;5087209;28;20026;-19
2023/06/27 02:19:36;;;;;;;20.55;10.48;;;;;;;17.99;100.00;99811.31;5087090;28;20024;-18
2023/06/27 02:22:01;;;;;;;22.15;10.60;;;;;;;17.98;100.00;99810.50;5087102;28;20031;-20
2023/06/27 02:24:26;;;;;;;17.73;9.90;;;;;;;18.08;100.00;99804.25;5087001;28;20781;-19
2023/06/27 02:26:52;;;;;;;23.52;11.25;;;;;;;17.86;100.00;99813.50;5087121;28;20482;-19
2023/06/27 02:29:17;;;;;;;20.75;10.95;;;;;;;18.02;100.00;99811.56;5086685;28;20392;-18
2023/06/27 02:31:43;;;;;;;18.33;9.38;;;;;;;17.99;100.00;99814.81;5086650;28;20024;-18
2023/06/27 02:34:08;;;;;;;15.60;8.57;;;;;;;18.01;100.00;99809.13;5087158;28;20435;-18
2023/06/27 02:36:34;;;;;;;13.73;7.43;;;;;;;18.19;100.00;99807.75;5086540;28;20047;-18
2023/06/27 02:39:01;;;;;;;12.73;7.30;;;;;;;18.27;100.00;99807.16;5086905;28;20020;-18
2023/06/27 02:41:26;;;;;;;12.65;7.45;;;;;;;18.13;100.00;99820.44;5086413;28;20016;-19
2023/06/27 02:43:52;;;;;;;9.57;6.55;;;;;;;18.27;100.00;99817.97;5086724;28;20850;-19
2023/06/27 02:46:17;;;;;;;9.52;5.55;;;;;;;18.09;100.00;99821.28;5086261;28;20400;-18
2023/06/27 02:48:43;;;;;;;10.32;6.25;;;;;;;18.17;100.00;99826.09;5086530;28;20039;-19
2023/06/27 02:51:08;;;;;;;12.95;6.35;;;;;;;18.10;100.00;99825.56;5086530;28;20028;-19
2023/06/27 02:53:34;;;;;;;15.18;6.20;;;;;;;18.24;100.00;99827.41;5086409;28;20032;-18
2023/06/27 02:56:02;;;;;;;15.80;7.53;;;;;;;18.23;100.00;99831.19;5086403;28;20034;-17
2023/06/27 02:58:31;;;;;;;12.55;7.00;;;;;;;18.23;100.00;99836.59;5085992;28;20503;-18
2023/06/27 03:00:59;;;;;;;14.45;7.68;;;;;;;18.11;100.00;99827.19;5086326;28;20024;-18
2023/06/27 03:03:25;;;;;;;10.52;6.18;;;;;;;18.23;100.00;99825.00;5086067;28;20024;-22
2023/06/27 03:05:50;;;;;;;11.10;5.63;;;;;;;18.14;100.00;99829.34;5086195;28;20115;-18
2023/06/27 03:08:16;;;;;;;10.38;5.55;;;;;;;18.20;100.00;99830.94;5086249;28;20414;-18
2023/06/27 03:10:42;;;;;;;30.55;14.82;;;;;;;18.20;100.00;99836.34;5086086;28;20422;-18
2023/06/27 03:13:08;;;;;;;29.73;14.38;;;;;;;18.48;100.00;99837.59;5086007;28;20475;-19
2023/06/27 03:15:33;;;;;;;26.58;13.18;;;;;;;18.50;100.00;99840.00;5085699;28;20024;-18
2023/06/27 03:17:58;;;;;;;19.20;8.73;;;;;;;18.48;100.00;99837.59;5086188;28;21011;-18
2023/06/27 03:20:24;;;;;;;18.75;8.27;;;;;;;18.59;100.00;99832.94;5085382;28;20439;-23
2023/06/27 03:22:49;;;;;;;14.43;7.10;;;;;;;18.59;100.00;99831.06;5086139;28;20102;-19
2023/06/27 03:25:15;;;;;;;13.57;6.80;;;;;;;18.50;100.00;99830.00;5085643;28;20028;-19
2023/06/27 03:27:40;;;;;;;11.80;5.82;;;;;;;18.58;100.00;99831.34;5085782;28;20054;-18
2023/06/27 03:30:07;;;;;;;13.45;6.70;;;;;;;18.70;100.00;99834.50;5085548;28;20488;-18
2023/06/27 03:32:33;;;;;;;12.25;6.40;;;;;;;18.79;100.00;99838.25;5085861;28;20028;-18
2023/06/27 03:34:59;;;;;;;9.02;5.78;;;;;;;18.63;100.00;99828.59;5085870;28;20028;-18
2023/06/27 03:37:25;;;;;;;14.63;6.43;;;;;;;18.69;100.00;99832.88;5085785;28;20051;-25
2023/06/27 03:39:50;;;;;;;10.20;6.25;;;;;;;18.78;100.00;99833.91;5086019;28;20399;-18
2023/06/27 03:42:16;;;;;;;9.05;5.75;;;;;;;18.98;100.00;99837.59;5085142;28;20181;-18
2023/06/27 03:44:42;;;;;;;8.93;5.63;;;;;;;18.84;100.00;99840.94;5085660;28;20135;-18
2023/06/27 03:47:08;;;;;;;9.23;6.07;;;;;;;18.69;100.00;99819.38;5085318;28;20456;-18
2023/06/27 03:49:33;;;;;;;9.25;5.80;;;;;;;18.68;100.00;99817.78;5085937;28;20043;-18
2023/06/27 03:51:59;;;;;;;11.00;6.78;;;;;;;18.72;100.00;99829.63;5085511;28;20024;-18
2023/06/27 03:54:24;;;;;;;13.48;6.97;;;;;;;18.85;100.00;99831.75;5085695;28;20758;-19
2023/06/27 03:56:50;;;;;;;9.80;5.97;;;;;;;18.73;100.00;99836.63;5085214;28;20035;-19
2023/06/27 03:59:15;;;;;;;11.80;6.75;;;;;;;18.68;100.00;99836.69;5085410;28;20028;-18
2023/06/27 04:01:41;;;;;;;14.13;7.00;;;;;;;18.75;100.00;99837.16;5085564;28;20531;-20
2023/06/27 04:04:08;;;;;;;12.75;6.78;;;;;;;18.99;100.00;99847.34;5085422;28;20868;-19
2023/06/27 04:06:33;;;;;;;11.95;6.55;;;;;;;18.85;100.00;99834.44;5085235;28;20032;-17
2023/06/27 04:09:00;;;;;;;14.27;6.85;;;;;;;18.84;100.00;99835.53;5085364;28;20467;-18
2023/06/27 04:11:25;;;;;;;12.60;7.05;;;;;;;18.93;100.00;99848.47;5085314;28;20027;-21
2023/06/27 04:13:51;;;;;;;15.52;7.78;;;;;;;19.19;100.00;99847.19;5085374;28;20407;-18
2023/06/27 04:16:16;;;;;;;10.68;6.72;;;;;;;18.99;100.00;99850.03;5085036;28;20054;-18
2023/06/27 04:18:42;;;;;;;17.40;7.60;;;;;;;19.12;100.00;99856.72;5085335;28;20024;-19
2023/06/27 04:21:07;;;;;;;13.43;7.78;;;;;;;19.42;100.00;99851.06;5085077;28;20032;-18
2023/06/27 04:23:32;;;;;;;14.95;7.60;;;;;;;19.53;100.00;99851.78;5085255;28;20043;-18
2023/06/27 04:26:07;;;;;;;13.38;7.93;;;;;;;19.56;100.00;99851.25;5085073;28;20093;-17
2023/06/27 04:28:33;;;;;;;23.63;10.82;;;;;;;19.70;100.00;99856.00;5085208;28;20081;-18
2023/06/27 04:31:00;;;;;;;20.13;10.70;;;;;;;19.77;100.00;99856.50;5085247;28;20081;-18
2023/06/27 04:33:27;;;;;;;17.50;9.35;;;;;;;19.85;100.00;99858.59;5086870;28;20028;-21
2023/06/27 04:36:00;;;;;;;13.32;8.15;;;;;;;20.06;100.00;99857.28;5088975;28;20536;-18
2023/06/27 04:38:27;;;;;;;14.00;8.85;;;;;;;20.19;100.00;99857.69;5089005;28;20024;-21
2023/06/27 04:40:52;;;;;;;16.40;8.63;;;;;;;20.28;100.00;99866.78;5089001;28;20036;-18
2023/06/27 04:43:18;;;;;;;15.18;9.43;;;;;;;20.29;100.00;99868.41;5088927;28;20109;-18
2023/06/27 04:45:43;;;;;;;15.50;9.45;;;;;;;20.54;100.00;99866.50;5088493;28;20039;-19
2023/06/27 04:48:09;;;;;;;15.93;9.13;;;;;;;20.80;100.00;99869.69;5088905;28;20024;-17
2023/06/27 04:50:35;;;;;;;16.27;10.65;;;;;;;20.93;100.00;99876.31;5088603;28;20423;-18
2023/06/27 04:53:03;;;;;;;21.92;11.70;;;;;;;21.06;100.00;99875.56;5088805;28;20040;-21
2023/06/27 04:55:28;;;;;;;;;;;;;;;21.16;100.00;99883.56;5089005;28;20105;-18
2023/06/27 04:57:54;;;;;;;19.88;11.50;;;;;;;21.08;100.00;99881.50;5087171;28;19912;-18
2023/06/27 05:00:19;;;;;;;19.50;10.57;;;;;;;21.06;100.00;99886.41;5088588;28;20036;-19
2023/06/27 05:02:45;;;;;;;17.90;10.88;;;;;;;21.17;100.00;99884.38;5088415;28;20047;-19
2023/06/27 05:05:10;;;;;;;16.27;10.77;;;;;;;21.33;100.00;99883.06;5088471;28;20415;-20
2023/06/27 05:07:36;;;;;;;16.35;10.95;;;;;;;21.42;100.00;99883.19;5088276;28;20106;-18
2023/06/27 05:10:01;;;;;;;18.75;11.32;;;;;;;21.51;100.00;99888.75;5088378;28;20020;-18
2023/06/27 05:12:27;;;;;;;16.05;10.52;;;;;;;21.65;100.00;99884.19;5088356;28;20076;-20
2023/06/27 05:14:52;;;;;;;17.42;10.23;;;;;;;21.80;100.00;99861.41;5088233;28;20035;-18
2023/06/27 05:17:17;;;;;;;17.45;11.43;;;;;;;21.88;99.87;99879.72;5088338;28;20130;-18
2023/06/27 05:19:43;;;;;;;15.60;11.65;;;;;;;21.90;100.00;99882.13;5088339;28;20028;-18
2023/06/27 05:22:08;;;;;;;15.82;10.90;;;;;;;21.83;99.75;99891.47;5088217;28;20601;-18
2023/06/27 05:24:34;;;;;;;18.08;11.02;;;;;;;21.80;100.00;99893.97;5088135;28;20036;-18
2023/06/27 05:26:59;;;;;;;17.45;10.80;;;;;;;21.98;100.00;99901.25;5087876;28;20024;-18
2023/06/27 05:29:25;;;;;;;15.18;10.18;;;;;;;21.98;100.00;99895.81;5088120;28;20159;-18
2023/06/27 05:31:51;;;;;;;16.42;10.07;;;;;;;22.26;97.66;99904.03;5088222;28;20055;-18
2023/06/27 05:34:16;;;;;;;17.92;9.98;;;;;;;22.51;96.82;99899.22;5088044;28;20035;-19
2023/06/27 05:36:41;;;;;;;16.42;10.88;;;;;;;22.66;95.99;99890.75;5087608;28;20024;-19
2023/06/27 05:39:07;;;;;;;15.13;9.98;;;;;;;22.69;96.26;99892.84;5093396;28;20023;-18
2023/06/27 05:41:32;;;;;;;14.13;10.00;;;;;;;22.80;97.20;99893.44;5093283;28;20110;-18
2023/06/27 05:43:58;;;;;;;19.13;12.43;;;;;;;22.63;97.75;99875.84;5087176;28;20055;-18
2023/06/27 05:46:23;;;;;;;19.98;11.13;;;;;;;22.83;94.84;99871.09;5087776;28;20024;-19
2023/06/27 05:48:48;;;;;;;14.93;10.07;;;;;;;22.76;96.16;99887.81;5087809;28;20030;-18
2023/06/27 05:51:14;;;;;;;13.68;8.68;;;;;;;23.02;93.91;99890.81;5087753;28;20031;-18
2023/06/27 05:53:39;;;;;;;14.93;8.73;;;;;;;23.13;95.64;99891.41;5087464;28;20469;-18
2023/06/27 05:56:05;;;;;;;13.70;9.73;;;;;;;23.39;91.06;99898.94;5087555;28;20035;-19
2023/06/27 05:58:34;;;;;;;14.90;9.18;;;;;;;23.49;91.14;99879.66;5087496;28;20102;-18
2023/06/27 06:01:00;;;;;;;13.43;8.45;;;;;;;23.46;89.79;99899.34;5087299;28;20056;-18
2023/06/27 06:03:26;;;;;;;10.80;7.80;;;;;;;23.51;89.37;99888.31;5087594;28;20092;-17
2023/06/27 06:05:51;;;;;;;13.77;8.82;;;;;;;23.72;88.60;99904.13;5087320;28;20038;-18
2023/06/27 06:08:17;;;;;;;11.15;7.85;;;;;;;23.88;86.55;99893.69;5086978;28;20741;-19
2023/06/27 06:10:42;;;;;;;15.57;8.65;;;;;;;23.89;86.28;99900.78;5087128;28;20024;-19
2023/06/27 06:13:08;;;;;;;15.10;9.43;;;;;;;23.98;86.20;99902.41;5087311;28;20077;-18
2023/06/27 06:15:33;;;;;;;13.13;8.00;;;;;;;24.00;86.20;99900.16;5087158;28;20115;-19
2023/06/27 06:17:58;;;;;;;14.98;8.57;;;;;;;24.17;86.39;99899.47;5086773;28;20024;-19
2023/06/27 06:20:24;;;;;;;12.05;7.75;;;;;;;24.17;86.28;99893.19;5087308;28;20063;-19
2023/06/27 06:22:49;;;;;;;11.75;7.63;;;;;;;24.35;82.25;99897.59;5086853;28;20047;-18
2023/06/27 06:25:16;;;;;;;12.10;8.15;;;;;;;24.19;83.36;99899.97;5086852;28;20422;-19
2023/06/27 06:27:42;;;;;;;15.95;8.10;;;;;;;24.28;81.92;99899.97;5086635;28;20036;-18
2023/06/27 06:30:08;;;;;;;11.20;7.13;;;;;;;24.35;80.33;99903.03;5095448;28;20034;-19
2023/06/27 06:32:34;;;;;;;12.23;7.43;;;;;;;24.50;79.27;99903.75;5107077;28;20027;-20
2023/06/27 06:34:59;;;;;;;11.27;7.63;;;;;;;24.57;78.39;99891.28;5107153;28;20031;-19
2023/06/27 06:37:24;;;;;;;12.02;7.45;;;;;;;24.70;77.52;99908.63;5107031;28;20383;-19
2023/06/27 06:39:50;;;;;;;11.40;6.75;;;;;;;24.83;76.08;99904.19;5106744;28;20019;-19
2023/06/27 06:42:15;;;;;;;8.98;7.30;;;;;;;25.01;74.08;99910.47;5106920;28;20052;-19
2023/06/27 06:44:41;;;;;;;11.88;7.18;;;;;;;24.99;76.36;99910.00;5105367;28;20024;-19
2023/06/27 06:47:06;;;;;;;12.00;7.57;;;;;;;25.20;75.95;99915.63;5106507;28;20487;-18
2023/06/27 06:49:32;;;;;;;11.48;7.55;;;;;;;25.18;76.73;99898.75;5106714;28;20020;-19
2023/06/27 06:51:57;;;;;;;11.13;7.63;;;;;;;25.12;77.54;99902.78;5106777;28;20032;-28
2023/06/27 06:54:24;;;;;;;14.90;7.40;;;;;;;25.22;76.04;99911.47;5106868;28;20047;-19
2023/06/27 06:56:49;;;;;;;14.35;7.00;;;;;;;25.45;73.27;99908.56;5105598;28;20019;-20
2023/06/27 06:59:15;;;;;;;8.77;6.10;;;;;;;25.63;70.74;99901.16;5105977;28;20484;-19
2023/06/27 07:01:41;;;;;;;12.05;6.18;;;;;;;25.81;69.43;99902.72;5106619;28;20032;-18
2023/06/27 07:04:06;;;;;;;11.10;5.80;;;;;;;26.12;68.56;99909.13;5106108;28;20034;-19
2023/06/27 07:06:32;;;;;;;14.70;6.13;;;;;;;26.21;68.03;99904.41;5105938;28;20032;-19
2023/06/27 07:08:57;;;;;;;10.85;6.20;;;;;;;26.07;68.36;99904.59;5105908;28;20051;-19
2023/06/27 07:11:23;;;;;;;10.95;6.18;;;;;;;26.08;67.26;99905.44;5106121;28;20023;-19
2023/06/27 07:13:48;;;;;;;10.65;5.40;;;;;;;26.17;68.27;99892.53;5106374;28;20027;-19
2023/06/27 07:16:14;;;;;;;8.98;5.38;;;;;;;26.23;65.94;99902.13;5106322;28;20508;-18
2023/06/27 07:18:39;;;;;;;7.93;5.18;;;;;;;26.29;65.11;99906.28;5106048;28;20031;-19
2023/06/27 07:21:05;;;;;;;10.23;5.85;;;;;;;26.21;66.99;99893.47;5106226;28;20016;-21
2023/06/27 07:23:30;;;;;;;9.38;5.15;;;;;;;26.32;66.21;99894.72;5106197;28;20024;-19
2023/06/27 07:25:55;;;;;;;6.93;4.80;;;;;;;26.26;64.22;99891.34;5106090;28;20414;-19
2023/06/27 07:28:21;;;;;;;8.23;4.55;;;;;;;26.35;67.90;99883.09;5106172;28;20035;-19
2023/06/27 07:30:47;;;;;;;8.98;5.35;;;;;;;26.63;66.46;99893.63;5105912;28;20069;-19
2023/06/27 07:33:13;;;;;;;7.88;4.97;;;;;;;26.71;66.00;99897.44;5106160;28;20020;-22
2023/06/27 07:35:38;;;;;;;8.23;5.10;;;;;;;26.81;63.77;99889.63;5105983;28;20035;-19
2023/06/27 07:38:03;;;;;;;7.85;4.80;;;;;;;26.84;65.07;99878.00;5106096;28;20032;-19
2023/06/27 07:40:29;;;;;;;7.05;4.57;;;;;;;27.16;58.51;99889.38;5105725;28;20031;-19
2023/06/27 07:42:54;;;;;;;8.40;4.75;;;;;;;27.10;60.39;99874.28;5106036;28;20051;-18
2023/06/27 07:45:20;;;;;;;7.20;4.50;;;;;;;27.14;60.32;99879.91;5105865;28;20042;-19
2023/06/27 07:47:45;;;;;;;6.68;4.45;;;;;;;27.41;61.20;99886.78;5105761;28;20023;-19
2023/06/27 07:50:11;;;;;;;8.32;4.57;;;;;;;27.38;57.28;99884.69;5105589;28;20670;-20
2023/06/27 07:52:36;;;;;;;7.63;4.60;;;;;;;27.54;59.52;99880.19;5105730;28;20517;-19
2023/06/27 07:55:02;;;;;;;6.05;4.45;;;;;;;27.67;61.98;99874.78;5105678;28;20016;-20
2023/06/27 07:57:27;;;;;;;9.00;4.10;;;;;;;27.70;58.75;99874.09;5105805;28;20023;-19
2023/06/27 07:59:52;;;;;;;7.97;4.22;;;;;;;27.67;60.50;99874.78;5105630;28;20039;-18
2023/06/27 08:02:18;;;;;;;6.35;3.90;;;;;;;27.60;56.79;99880.78;5105815;28;20497;-20
2023/06/27 08:04:43;;;;;;;7.50;4.10;;;;;;;27.70;56.11;99885.03;5105550;28;20521;-20
2023/06/27 08:07:09;;;;;;;5.95;4.10;;;;;;;28.14;55.21;99877.97;5106853;28;20016;-19
2023/06/27 08:09:34;;;;;;;6.00;3.78;;;;;;;28.16;54.15;99881.16;5109818;28;20114;-19
2023/06/27 08:12:00;;;;;;;6.97;3.40;;;;;;;28.20;50.89;99884.03;5109701;28;20020;-19
2023/06/27 08:14:27;;;;;;;6.95;3.30;;;;;;;28.40;48.80;99880.38;5109981;28;20024;-19
2023/06/27 08:16:52;;;;;;;6.78;3.05;;;;;;;28.83;48.60;99887.19;5109797;28;20414;-19
2023/06/27 08:19:18;;;;;;;5.55;3.10;;;;;;;28.91;46.46;99881.91;5109810;28;20542;-20
2023/06/27 08:21:43;;;;;;;6.13;3.47;;;;;;;28.98;46.00;99865.66;5109597;28;20418;-19
2023/06/27 08:24:09;;;;;;;6.25;3.03;;;;;;;29.41;42.79;99888.88;5109633;28;20028;-19
2023/06/27 08:26:34;;;;;;;7.18;3.50;;;;;;;29.23;45.05;99869.94;5109507;28;20040;-19
2023/06/27 08:28:59;;;;;;;5.85;3.53;;;;;;;29.18;44.83;99870.19;5109427;28;20076;-19
2023/06/27 08:31:25;;;;;;;5.32;3.50;;;;;;;29.29;44.31;99875.97;5109625;28;20092;-21
2023/06/27 08:33:50;;;;;;;6.35;3.40;;;;;;;29.50;43.05;99878.50;5109278;28;20375;-18
2023/06/27 08:36:16;;;;;;;7.82;3.50;;;;;;;29.49;43.12;99867.91;5109417;28;20055;-19
2023/06/27 08:38:42;;;;;;;6.03;3.28;;;;;;;29.34;40.71;99874.94;5109524;28;20055;-20
2023/06/27 08:41:09;;;;;;;5.93;3.15;;;;;;;29.03;41.07;99858.00;5109547;28;20054;-19
2023/06/27 08:43:34;;;;;;;5.70;3.30;;;;;;;29.22;42.45;99868.34;5109256;28;20043;-19
2023/06/27 08:46:04;;;;;;;6.07;3.22;;;;;;;29.49;42.44;99876.94;5109554;28;20088;-18
2023/06/27 08:48:29;;;;;;;8.13;3.67;;;;;;;29.68;42.01;99875.47;5109013;28;20106;-21
2023/06/27 08:50:57;;;;;;;6.75;3.50;;;;;;;29.71;41.91;99863.78;5109327;28;20114;-19
2023/06/27 08:53:26;;;;;;;6.95;3.20;;;;;;;29.63;44.91;99866.31;5108936;28;20024;-19
2023/06/27 08:56:16;;;;;;;5.78;3.50;;;;;;;30.10;42.01;99870.28;5109125;28;20062;-19
2023/06/27 08:58:46;;;;;;;6.95;3.47;;;;;;;29.91;42.51;99879.22;5108977;28;20399;-19
2023/06/27 09:01:12;;;;;;;7.10;3.45;;;;;;;30.28;40.46;99873.47;5108697;28;20035;-19
2023/06/27 09:03:37;;;;;;;5.70;3.60;;;;;;;30.68;39.94;99864.19;5109092;28;20096;-19
2023/06/27 09:06:05;;;;;;;6.10;3.13;;;;;;;30.98;39.67;99860.91;5109123;28;20019;-19
2023/06/27 09:08:32;;;;;;;5.68;3.30;;;;;;;30.73;38.58;99869.41;5108689;28;20083;-19
2023/06/27 09:10:59;;;;;;;5.40;3.35;;;;;;;31.05;38.35;99866.56;5108700;28;20055;-19
2023/06/27 09:13:25;;;;;;;6.97;3.22;;;;;;;31.08;39.81;99860.34;5108770;28;20035;-19
2023/06/27 09:15:51;;;;;;;5.38;3.55;;;;;;;31.24;37.42;99861.06;5108932;28;20032;-19
2023/06/27 09:18:16;;;;;;;6.05;3.33;;;;;;;31.58;36.82;99864.06;5107846;28;20028;-19
2023/06/27 09:20:42;;;;;;;4.68;3.08;;;;;;;31.39;35.66;99856.59;5108170;28;20032;-18
2023/06/27 09:23:08;;;;;;;6.90;3.35;;;;;;;31.19;37.63;99850.31;5108538;28;20039;-19
2023/06/27 09:25:33;;;;;;;6.93;3.60;;;;;;;31.39;37.08;99850.31;5108217;28;20028;-21
2023/06/27 09:28:14;;;;;;;6.47;3.72;;;;;;;31.16;37.34;99839.22;5108679;28;20069;-19
2023/06/27 09:30:50;;;;;;;10.45;3.72;;;;;;;31.57;38.30;99845.16;5108239;28;20027;-20
2023/06/27 09:33:18;;;;;;;8.45;4.18;;;;;;;31.70;37.67;99843.00;5108257;28;20026;-20
2023/06/27 09:35:45;;;;;;;5.82;3.38;;;;;;;31.68;36.80;99851.66;5108393;28;20074;-19
2023/06/27 09:38:10;;;;;;;6.60;3.58;;;;;;;31.74;36.45;99843.88;5108486;28;20513;-19
2023/06/27 09:40:36;;;;;;;7.25;4.03;;;;;;;31.95;33.45;99848.94;5107979;28;20031;-19
2023/06/27 09:43:05;;;;;;;6.75;3.30;;;;;;;31.80;34.18;99832.16;5108341;28;20411;-19
2023/06/27 09:45:30;;;;;;;6.50;3.40;;;;;;;32.33;34.42;99848.00;5108252;28;20077;-22
2023/06/27 09:47:57;;;;;;;5.53;3.03;;;;;;;32.01;33.90;99845.53;5108260;28;20024;-20
2023/06/27 09:50:30;;;;;;;8.10;3.20;;;;;;;31.66;35.13;99848.47;5107770;28;20484;-19
2023/06/27 09:52:59;;;;;;;5.68;3.00;;;;;;;31.30;35.91;99841.47;5107991;28;20594;-19
2023/06/27 09:55:25;;;;;;;14.40;3.38;;;;;;;31.73;35.58;99839.50;5107915;28;20103;-20
2023/06/27 09:57:51;;;;;;;5.57;2.85;;;;;;;32.22;36.25;99847.03;5108051;28;20524;-21
2023/06/27 10:00:22;;;;;;;4.70;2.72;;;;;;;32.55;32.31;99851.09;5107815;28;20506;-19
2023/06/27 10:02:51;;;;;;;4.82;2.80;;;;;;;32.09;34.76;99842.91;5107752;28;20032;-19
2023/06/27 10:05:19;;;;;;;5.50;3.10;;;;;;;31.85;33.56;99839.31;5107879;28;20150;-19
2023/06/27 10:07:45;;;;;;;4.90;3.00;;;;;;;31.59;34.73;99840.06;5107296;28;20059;-18
2023/06/27 10:10:11;;;;;;;6.55;3.15;;;;;;;31.62;34.90;99842.09;5107523;28;20039;-19
2023/06/27 10:12:37;;;;;;;5.95;3.38;;;;;;;31.54;34.41;99838.41;5107518;28;20039;-20
2023/06/27 10:15:04;;;;;;;5.03;3.13;;;;;;;31.98;33.17;99837.97;5107550;28;20027;-19
2023/06/27 10:17:30;;;;;;;5.57;3.80;;;;;;;31.84;34.34;99835.00;5107450;28;20031;-22
2023/06/27 10:19:57;;;;;;;8.40;3.90;;;;;;;31.61;35.51;99835.78;5107432;28;20399;-19
2023/06/27 10:22:29;;;;;;;5.22;3.40;;;;;;;31.08;34.53;99835.56;5107317;28;20486;-20
2023/06/27 10:24:59;;;;;;;5.68;3.50;;;;;;;30.79;36.00;99820.34;5107411;28;20554;-19
2023/06/27 10:27:25;;;;;;;7.53;3.20;;;;;;;30.86;35.83;99833.50;5107475;28;20027;-19
2023/06/27 10:29:51;;;;;;;6.68;4.13;;;;;;;31.37;35.76;99836.88;5107211;28;20040;-19
2023/06/27 10:32:18;;;;;;;4.55;3.13;;;;;;;32.02;33.35;99830.59;5107135;28;20157;-19
2023/06/27 10:34:44;;;;;;;4.93;3.00;;;;;;;32.73;33.49;99823.72;5107325;28;20023;-20
2023/06/27 10:37:25;;;;;;;5.07;3.20;;;;;;;32.96;32.52;99818.09;5107173;28;20073;-19
2023/06/27 10:40:09;;;;;;;6.32;3.33;;;;;;;33.19;32.24;99816.00;5106921;28;20311;-19
2023/06/27 10:42:35;;;;;;;4.25;2.88;;;;;;;33.13;30.74;99812.00;5106702;28;20063;-25
2023/06/27 10:45:07;;;;;;;5.25;2.95;;;;;;;33.13;33.50;99800.16;5106923;28;20040;-19
2023/06/27 10:47:44;;;;;;;4.90;3.25;;;;;;;33.74;32.47;99804.31;5106841;28;20035;-19
2023/06/27 10:50:13;;;;;;;6.78;3.63;;;;;;;33.93;31.21;99808.03;5106880;28;20115;-19
2023/06/27 10:52:59;;;;;;;7.30;3.40;;;;;;;33.73;31.76;99804.69;5106543;28;20036;-19
2023/06/27 10:55:28;;;;;;;4.80;3.05;;;;;;;33.58;30.05;99792.69;5106858;28;20107;-19
2023/06/27 10:58:09;;;;;;;6.72;3.30;;;;;;;33.59;31.12;99800.63;5106570;28;20032;-19
2023/06/27 11:00:35;;;;;;;7.35;3.28;;;;;;;33.92;30.78;99801.72;5106760;28;20487;-19
2023/06/27 11:03:03;;;;;;;5.15;3.17;;;;;;;34.37;30.14;99799.66;5106509;28;20024;-22
2023/06/27 11:05:51;;;;;;;6.20;3.22;;;;;;;34.87;30.76;99790.00;5106833;28;20111;-19
2023/06/27 11:08:20;;;;;;;6.45;3.20;;;;;;;34.19;29.58;99787.69;5106417;28;20106;-20
2023/06/27 11:11:08;;;;;;;5.68;2.83;;;;;;;32.86;31.29;99771.81;5106608;28;20035;-19
2023/06/27 11:13:45;;;;;;;5.03;2.80;;;;;;;33.03;30.75;99780.28;5106317;28;20024;-19
2023/06/27 11:16:13;;;;;;;4.75;2.88;;;;;;;33.56;31.10;99779.25;5106315;28;20443;-19
2023/06/27 11:18:39;;;;;;;6.75;2.92;;;;;;;33.85;30.43;99779.50;5106244;28;20068;-20
2023/06/27 11:21:04;;;;;;;4.90;2.95;;;;;;;33.88;31.48;99776.00;5106246;28;20059;-18